createdAt,value
2022-11-15T00:01:29.741Z,19.65
2022-11-15T00:03:58.173Z,17.45
2022-11-15T00:06:26.870Z,17.50
2022-11-15T00:08:55.226Z,18.17
2022-11-15T00:11:24.017Z,19.33
2022-11-15T00:13:56.736Z,19.27
2022-11-15T00:16:26.283Z,19.92
2022-11-15T00:18:54.667Z,17.05
2022-11-15T00:21:23.357Z,20.52
2022-11-15T00:23:51.870Z,18.02
2022-11-15T00:26:20.739Z,18.27
2022-11-15T00:28:49.047Z,18.60
2022-11-15T00:31:19.041Z,18.75
2022-11-15T00:33:47.695Z,19.15
2022-11-15T00:36:16.385Z,20.00
2022-11-15T00:38:44.891Z,18.85
2022-11-15T00:41:13.538Z,20.17
2022-11-15T00:43:44.814Z,18.92
2022-11-15T00:46:13.871Z,18.90
2022-11-15T00:48:43.692Z,21.02
2022-11-15T00:51:12.286Z,19.85
2022-11-15T00:53:40.567Z,20.58
2022-11-15T00:56:09.368Z,19.33
2022-11-15T00:58:37.918Z,23.40
2022-11-15T01:01:11.390Z,20.33
2022-11-15T01:03:41.251Z,20.27
2022-11-15T01:06:12.806Z,20.60
2022-11-15T01:08:41.502Z,20.40
2022-11-15T01:11:12.428Z,20.77
2022-11-15T01:13:41.837Z,19.73
2022-11-15T01:16:12.784Z,21.58
2022-11-15T01:18:42.254Z,20.42
2022-11-15T01:21:14.446Z,21.35
2022-11-15T01:23:43.195Z,22.40
2022-11-15T01:26:15.226Z,20.40
2022-11-15T01:28:44.504Z,23.45
2022-11-15T01:31:16.312Z,23.33
2022-11-15T01:33:45.280Z,25.23
2022-11-15T01:36:17.647Z,24.25
2022-11-15T01:38:46.618Z,23.30
2022-11-15T01:41:20.648Z,22.73
2022-11-15T01:43:51.881Z,25.23
2022-11-15T01:46:28.388Z,25.17
2022-11-15T01:48:59.870Z,22.38
2022-11-15T01:51:34.031Z,24.48
2022-11-15T01:54:07.760Z,25.08
2022-11-15T01:56:45.068Z,25.05
2022-11-15T01:59:14.148Z,23.48
2022-11-15T02:01:43.990Z,25.67
2022-11-15T02:04:15.812Z,22.70
2022-11-15T02:06:47.757Z,21.23
2022-11-15T02:09:17.137Z,26.40
2022-11-15T02:11:47.315Z,25.75
2022-11-15T02:14:17.955Z,24.65
2022-11-15T02:16:57.882Z,24.00
2022-11-15T02:19:45.815Z,24.73
2022-11-15T02:22:29.683Z,23.80
2022-11-15T02:25:16.491Z,26.20
2022-11-15T02:28:09.213Z,22.50
2022-11-15T02:30:44.863Z,24.65
2022-11-15T02:33:24.088Z,23.73
2022-11-15T02:35:59.645Z,24.33
2022-11-15T02:38:34.995Z,21.67
2022-11-15T02:41:06.832Z,23.88
2022-11-15T02:43:58.448Z,24.80
2022-11-15T02:46:48.769Z,24.95
2022-11-15T02:49:17.945Z,23.90
2022-11-15T02:51:50.139Z,19.85
2022-11-15T02:54:23.920Z,21.85
2022-11-15T02:56:55.294Z,24.30
2022-11-15T02:59:46.198Z,23.10
2022-11-15T03:02:27.072Z,23.25
2022-11-15T03:04:58.238Z,20.80
2022-11-15T03:07:32.074Z,21.25
2022-11-15T03:10:08.810Z,21.92
2022-11-15T03:12:43.721Z,21.63
2022-11-15T03:15:17.995Z,20.35
2022-11-15T03:17:55.229Z,20.83
2022-11-15T03:20:24.671Z,21.42
2022-11-15T03:22:53.742Z,19.25
2022-11-15T03:25:27.142Z,20.65
2022-11-15T03:27:59.496Z,19.90
2022-11-15T03:30:29.220Z,19.30
2022-11-15T03:33:01.021Z,18.77
2022-11-15T03:35:34.211Z,19.80
2022-11-15T03:38:09.828Z,18.52
2022-11-15T03:40:41.868Z,17.67
2022-11-15T03:43:17.472Z,18.23
2022-11-15T03:45:50.132Z,19.30
2022-11-15T03:48:25.100Z,17.95
2022-11-15T03:50:54.347Z,18.43
2022-11-15T03:53:22.849Z,18.13
2022-11-15T03:55:51.697Z,19.45
2022-11-15T03:58:20.415Z,17.77
2022-11-15T04:00:49.297Z,18.00
2022-11-15T04:03:19.613Z,17.45
2022-11-15T04:05:48.298Z,18.02
2022-11-15T04:08:16.815Z,18.77
2022-11-15T04:10:45.633Z,18.20
2022-11-15T04:13:14.045Z,18.27
2022-11-15T04:15:42.834Z,17.88
2022-11-15T04:18:11.317Z,17.30
2022-11-15T04:20:59.149Z,17.75
2022-11-15T04:23:45.401Z,18.25
2022-11-15T04:26:17.818Z,18.25
2022-11-15T04:29:00.286Z,18.17
2022-11-15T04:31:29.992Z,18.20
2022-11-15T04:33:59.300Z,16.87
2022-11-15T04:36:46.773Z,19.67
2022-11-15T04:39:15.098Z,17.23
2022-11-15T04:41:43.846Z,17.90
2022-11-15T04:44:12.460Z,17.08
2022-11-15T04:46:41.170Z,17.90
2022-11-15T04:49:09.635Z,18.85
2022-11-15T04:51:40.106Z,16.42
2022-11-15T04:54:09.125Z,17.25
2022-11-15T04:56:38.417Z,17.60
2022-11-15T04:59:06.887Z,15.57
2022-11-15T05:01:37.600Z,18.40
2022-11-15T05:04:20.553Z,18.98
2022-11-15T05:06:53.893Z,17.33
2022-11-15T05:09:22.985Z,17.02
2022-11-15T05:11:51.835Z,16.23
2022-11-15T05:14:20.116Z,17.77
2022-11-15T05:16:48.933Z,17.20
2022-11-15T05:19:17.822Z,18.45
2022-11-15T05:21:46.985Z,18.08
2022-11-15T05:24:16.897Z,17.55
2022-11-15T05:26:45.711Z,16.55
2022-11-15T05:29:14.082Z,16.23
2022-11-15T05:31:44.183Z,16.20
2022-11-15T05:34:12.843Z,17.08
2022-11-15T05:36:45.758Z,17.05
2022-11-15T05:39:14.138Z,15.95
2022-11-15T05:41:48.759Z,17.60
2022-11-15T05:44:19.907Z,18.15
2022-11-15T05:46:49.257Z,18.67
2022-11-15T05:49:21.288Z,17.65
2022-11-15T05:51:51.531Z,18.60
2022-11-15T05:54:21.882Z,16.27
2022-11-15T05:56:52.143Z,18.33
2022-11-15T05:59:22.054Z,15.18
2022-11-15T06:01:51.230Z,18.90
2022-11-15T06:04:19.544Z,17.55
2022-11-15T06:06:48.069Z,17.17
2022-11-15T06:09:16.335Z,18.05
2022-11-15T06:11:44.920Z,17.83
2022-11-15T06:14:14.911Z,18.15
2022-11-15T06:16:43.836Z,17.70
2022-11-15T06:19:12.314Z,18.10
2022-11-15T06:21:41.075Z,17.38
2022-11-15T06:24:10.701Z,16.75
2022-11-15T06:26:39.580Z,16.58
2022-11-15T06:29:08.017Z,17.98
2022-11-15T06:31:38.959Z,18.30
2022-11-15T06:34:07.230Z,16.55
2022-11-15T06:36:36.857Z,18.42
2022-11-15T06:39:05.837Z,16.48
2022-11-15T06:41:36.859Z,17.58
2022-11-15T06:44:05.715Z,18.13
2022-11-15T06:46:34.391Z,18.35
2022-11-15T06:49:09.424Z,17.88
2022-11-15T06:51:38.646Z,17.08
2022-11-15T06:54:07.334Z,16.05
2022-11-15T06:56:36.377Z,18.33
2022-11-15T06:59:04.986Z,17.95
2022-11-15T07:01:34.418Z,17.63
2022-11-15T07:04:04.600Z,17.40
2022-11-15T07:06:33.509Z,18.77
2022-11-15T07:09:01.995Z,16.83
2022-11-15T07:11:30.757Z,18.00
2022-11-15T07:14:01.128Z,18.08
2022-11-15T07:16:30.048Z,17.52
2022-11-15T07:18:59.068Z,17.75
2022-11-15T07:21:29.174Z,18.33
2022-11-15T07:23:57.655Z,15.63
2022-11-15T07:26:26.389Z,15.93
2022-11-15T07:28:55.598Z,16.67
2022-11-15T07:31:24.567Z,17.67
2022-11-15T07:33:52.823Z,16.90
2022-11-15T07:36:21.498Z,16.95
2022-11-15T07:38:51.229Z,16.67
2022-11-15T07:41:19.816Z,15.73
2022-11-15T07:43:48.275Z,17.85
2022-11-15T07:46:17.015Z,17.73
2022-11-15T07:48:45.876Z,18.58
2022-11-15T07:51:15.873Z,16.30
2022-11-15T07:53:44.643Z,16.88
2022-11-15T07:56:14.917Z,16.58
2022-11-15T07:58:43.514Z,16.95
2022-11-15T08:01:13.579Z,18.00
2022-11-15T08:03:42.211Z,16.13
2022-11-15T08:06:11.188Z,15.80
2022-11-15T08:08:39.462Z,15.98
2022-11-15T08:11:08.059Z,16.13
2022-11-15T08:13:38.071Z,16.67
2022-11-15T08:16:07.319Z,16.02
2022-11-15T08:18:35.775Z,15.15
2022-11-15T08:21:04.841Z,15.88
2022-11-15T08:23:33.653Z,16.42
2022-11-15T08:26:04.155Z,14.65
2022-11-15T08:28:33.340Z,16.52
2022-11-15T08:31:04.765Z,14.43
2022-11-15T08:33:34.484Z,16.55
2022-11-15T08:36:03.854Z,17.13
2022-11-15T08:38:32.636Z,15.63
2022-11-15T08:41:07.085Z,18.02
2022-11-15T08:43:35.599Z,17.95
2022-11-15T08:46:06.091Z,15.00
2022-11-15T08:48:34.626Z,16.00
2022-11-15T08:51:03.538Z,15.70
2022-11-15T08:53:32.006Z,15.27
2022-11-15T08:56:00.615Z,14.65
2022-11-15T08:58:29.097Z,14.15
2022-11-15T09:00:57.967Z,14.75
2022-11-15T09:03:27.716Z,13.77
2022-11-15T09:05:58.076Z,16.02
2022-11-15T09:11:17.452Z,14.70
2022-11-15T09:13:45.823Z,13.55
2022-11-15T09:16:16.330Z,14.95
2022-11-15T09:18:46.530Z,15.15
2022-11-15T09:21:15.778Z,15.52
2022-11-15T09:23:44.354Z,16.80
2022-11-15T09:26:12.938Z,15.27
2022-11-15T09:28:42.881Z,15.05
2022-11-15T09:31:11.808Z,14.43
2022-11-15T09:33:40.118Z,14.63
2022-11-15T09:36:11.374Z,14.65
2022-11-15T09:38:39.920Z,15.30
2022-11-15T09:41:25.083Z,15.13
2022-11-15T09:44:02.955Z,14.98
2022-11-15T09:46:39.938Z,14.18
2022-11-15T09:49:11.754Z,13.60
2022-11-15T09:51:47.787Z,14.07
2022-11-15T09:57:20.622Z,14.75
2022-11-15T10:03:14.321Z,14.90
2022-11-15T10:05:45.167Z,14.48
2022-11-15T10:08:28.074Z,13.15
2022-11-15T10:11:30.432Z,15.38
2022-11-15T10:13:50.950Z,14.40
2022-11-15T10:17:06.698Z,15.88
2022-11-15T10:19:41.685Z,14.75
2022-11-15T10:22:24.431Z,14.57
2022-11-15T10:25:18.599Z,14.82
2022-11-15T10:27:52.330Z,15.40
2022-11-15T10:30:22.141Z,13.90
2022-11-15T10:32:51.500Z,14.80
2022-11-15T10:35:26.727Z,14.63
2022-11-15T10:38:07.486Z,15.05
2022-11-15T10:40:38.206Z,13.13
2022-11-15T10:43:15.323Z,14.32
2022-11-15T10:45:44.469Z,15.98
2022-11-15T10:48:28.572Z,14.48
2022-11-15T10:50:57.967Z,14.65
2022-11-15T10:53:33.821Z,13.77
2022-11-15T10:56:09.193Z,16.80
2022-11-15T10:58:41.488Z,14.85
2022-11-15T11:01:17.331Z,15.93
2022-11-15T11:03:47.378Z,15.85
2022-11-15T11:06:18.210Z,16.17
2022-11-15T11:08:57.975Z,14.75
2022-11-15T11:11:46.265Z,16.27
2022-11-15T11:14:22.711Z,15.73
2022-11-15T11:16:55.069Z,15.40
2022-11-15T11:19:51.959Z,14.85
2022-11-15T11:22:28.168Z,14.27
2022-11-15T11:25:07.239Z,15.93
2022-11-15T11:27:49.734Z,15.15
2022-11-15T11:30:22.390Z,14.68
2022-11-15T11:33:00.612Z,14.52
2022-11-15T11:35:34.855Z,14.65
2022-11-15T11:38:20.021Z,12.73
2022-11-15T11:41:02.841Z,16.13
2022-11-15T11:43:43.594Z,16.38
2022-11-15T11:46:25.184Z,16.20
2022-11-15T11:48:59.419Z,14.73
2022-11-15T11:51:35.050Z,15.90
2022-11-15T11:54:13.362Z,16.77
2022-11-15T11:56:43.883Z,16.67
2022-11-15T11:59:21.094Z,15.63
2022-11-15T12:01:49.652Z,15.98
2022-11-15T12:04:23.239Z,16.50
2022-11-15T12:06:55.687Z,15.60
2022-11-15T12:09:30.807Z,15.95
2022-11-15T12:12:07.974Z,15.90
2022-11-15T12:14:44.228Z,17.27
2022-11-15T12:17:15.654Z,16.15
2022-11-15T12:19:44.959Z,18.05
2022-11-15T12:22:22.168Z,17.15
2022-11-15T12:24:57.231Z,17.52
2022-11-15T12:27:33.706Z,18.55
2022-11-15T12:30:11.514Z,17.08
2022-11-15T12:32:42.110Z,18.13
2022-11-15T12:35:27.862Z,17.63
2022-11-15T12:37:57.487Z,19.33
2022-11-15T12:40:28.648Z,20.27
2022-11-15T12:43:04.173Z,21.40
2022-11-15T12:45:37.779Z,20.60
2022-11-15T12:48:49.464Z,21.02
2022-11-15T12:51:19.271Z,20.83
2022-11-15T12:53:47.643Z,20.23
2022-11-15T12:56:25.972Z,20.02
2022-11-15T12:58:57.762Z,20.10
2022-11-15T13:02:02.468Z,20.02
2022-11-15T13:04:33.051Z,20.27
2022-11-15T13:07:04.252Z,21.02
2022-11-15T13:10:00.354Z,19.85
2022-11-15T13:12:58.381Z,21.35
2022-11-15T13:15:42.845Z,19.98
2022-11-15T13:18:36.755Z,21.50
2022-11-15T13:21:28.550Z,21.52
2022-11-15T13:23:57.788Z,21.20
2022-11-15T13:26:26.420Z,21.55
2022-11-15T13:28:56.951Z,20.15
2022-11-15T13:31:32.494Z,21.05
2022-11-15T13:34:17.902Z,23.02
2022-11-15T13:36:54.553Z,24.27
2022-11-15T13:39:30.370Z,22.05
2022-11-15T13:41:59.023Z,23.60
2022-11-15T13:44:29.685Z,22.80
2022-11-15T13:47:06.791Z,20.95
2022-11-15T13:49:38.867Z,23.13
2022-11-15T13:52:10.084Z,21.55
2022-11-15T13:54:45.368Z,23.15
2022-11-15T13:57:17.882Z,21.92
2022-11-15T13:59:49.521Z,21.13
2022-11-15T14:02:20.497Z,20.55
2022-11-15T14:04:53.344Z,22.10
2022-11-15T14:07:23.612Z,21.67
2022-11-15T14:09:52.805Z,18.98
2022-11-15T14:12:31.420Z,19.02
2022-11-15T14:15:00.996Z,18.55
2022-11-15T14:17:38.584Z,19.73
2022-11-15T14:23:02.677Z,20.85
2022-11-15T14:25:32.031Z,19.58
2022-11-15T14:28:30.270Z,19.27
2022-11-15T14:31:00.650Z,18.80
2022-11-15T14:33:31.857Z,20.05
2022-11-15T14:36:04.989Z,20.20
2022-11-15T14:38:36.047Z,19.52
2022-11-15T14:41:05.640Z,17.85
2022-11-15T14:43:34.425Z,19.25
2022-11-15T14:46:03.200Z,21.25
2022-11-15T14:48:31.963Z,18.13
2022-11-15T14:51:00.817Z,20.17
2022-11-15T14:53:29.152Z,21.05
2022-11-15T14:55:59.104Z,17.85
2022-11-15T14:58:27.967Z,18.83
2022-11-15T15:00:56.510Z,19.42
2022-11-15T15:03:24.888Z,18.50
2022-11-15T15:05:53.729Z,16.65
2022-11-15T15:08:21.993Z,19.25
2022-11-15T15:10:50.825Z,19.23
2022-11-15T15:13:22.544Z,18.02
2022-11-15T15:15:52.431Z,18.85
2022-11-15T15:18:21.506Z,17.90
2022-11-15T15:20:57.448Z,15.52
2022-11-15T15:23:27.979Z,18.70
2022-11-15T15:25:56.584Z,16.90
2022-11-15T15:28:31.271Z,16.30
2022-11-15T15:31:02.906Z,17.48
2022-11-15T15:33:31.372Z,17.45
2022-11-15T15:36:00.264Z,17.92
2022-11-15T15:38:29.367Z,18.67
2022-11-15T15:40:58.311Z,15.65
2022-11-15T15:43:28.138Z,18.67
2022-11-15T15:45:57.123Z,18.27
2022-11-15T15:48:25.410Z,19.73
2022-11-15T15:50:54.118Z,17.50
2022-11-15T15:53:22.528Z,17.77
2022-11-15T15:55:51.100Z,16.08
2022-11-15T15:58:19.381Z,18.30
2022-11-15T16:00:49.325Z,18.60
2022-11-15T16:03:17.626Z,18.80
2022-11-15T16:05:46.378Z,17.05
2022-11-15T16:08:20.667Z,16.98
2022-11-15T16:10:49.818Z,17.95
2022-11-15T16:13:18.545Z,18.73
2022-11-15T16:15:50.981Z,19.42
2022-11-15T16:18:19.907Z,18.40
2022-11-15T16:20:50.977Z,25.65
2022-11-15T16:23:21.120Z,25.30
2022-11-15T16:25:51.471Z,29.13
2022-11-15T16:28:22.275Z,27.02
2022-11-15T16:31:02.125Z,33.05
2022-11-15T16:33:32.956Z,39.55
2022-11-15T16:36:01.886Z,42.67
2022-11-15T16:38:30.607Z,41.13
2022-11-15T16:40:59.703Z,34.08
2022-11-15T16:43:28.172Z,37.50
2022-11-15T16:45:58.366Z,30.03
2022-11-15T16:48:27.635Z,31.52
2022-11-15T16:50:58.187Z,31.60
2022-11-15T16:53:26.696Z,28.50
2022-11-15T16:55:56.796Z,27.98
2022-11-15T16:58:25.587Z,25.50
2022-11-15T17:00:55.820Z,24.90
2022-11-15T17:03:26.504Z,24.65
2022-11-15T17:05:59.134Z,24.05
2022-11-15T17:08:28.721Z,21.45
2022-11-15T17:10:57.396Z,17.60
2022-11-15T17:13:25.703Z,20.42
2022-11-15T17:16:05.384Z,19.90
2022-11-15T17:18:35.690Z,19.42
2022-11-15T17:21:09.043Z,18.40
2022-11-15T17:23:37.348Z,18.77
2022-11-15T17:26:28.391Z,16.63
2022-11-15T17:28:57.186Z,18.42
2022-11-15T17:31:26.818Z,17.85
2022-11-15T17:33:56.439Z,17.38
2022-11-15T17:36:24.927Z,18.20
2022-11-15T17:38:59.057Z,16.40
2022-11-15T17:41:29.503Z,15.50
2022-11-15T17:43:59.951Z,16.27
2022-11-15T17:46:30.192Z,15.75
2022-11-15T17:49:00.042Z,14.15
2022-11-15T17:51:28.843Z,13.48
2022-11-15T17:53:57.794Z,15.15
2022-11-15T17:56:28.194Z,15.65
2022-11-15T17:58:58.445Z,16.80
2022-11-15T18:01:29.354Z,20.75
2022-11-15T18:04:02.065Z,16.98
2022-11-15T18:06:33.702Z,16.83
2022-11-15T18:09:03.392Z,15.15
2022-11-15T18:11:34.677Z,14.77
2022-11-15T18:14:05.144Z,18.58
2022-11-15T18:16:36.990Z,16.23
2022-11-15T18:19:11.376Z,14.67
2022-11-15T18:21:56.702Z,15.43
2022-11-15T18:24:27.216Z,14.90
2022-11-15T18:26:56.509Z,15.63
2022-11-15T18:29:25.866Z,14.95
2022-11-15T18:31:56.253Z,14.88
2022-11-15T18:34:40.162Z,14.75
2022-11-15T18:37:10.279Z,15.20
2022-11-15T18:39:38.865Z,14.37
2022-11-15T18:42:07.610Z,12.50
2022-11-15T18:44:36.346Z,15.98
2022-11-15T18:47:05.179Z,14.75
2022-11-15T18:49:35.053Z,12.40
2022-11-15T18:52:03.943Z,15.60
2022-11-15T18:54:32.297Z,15.02
2022-11-15T18:57:01.808Z,15.02
2022-11-15T18:59:31.030Z,14.00
2022-11-15T19:02:00.322Z,13.45
2022-11-15T19:04:28.882Z,15.05
2022-11-15T19:06:59.123Z,13.75
2022-11-15T19:09:32.965Z,14.30
2022-11-15T19:12:02.176Z,14.18
2022-11-15T19:14:30.955Z,14.13
2022-11-15T19:16:59.546Z,15.32
2022-11-15T19:19:29.355Z,14.48
2022-11-15T19:22:00.153Z,13.95
2022-11-15T19:24:29.976Z,13.32
2022-11-15T19:26:58.982Z,12.63
2022-11-15T19:29:27.442Z,13.80
2022-11-15T19:31:56.176Z,14.27
2022-11-15T19:34:24.505Z,14.73
2022-11-15T19:36:53.316Z,12.27
2022-11-15T19:39:22.992Z,11.80
2022-11-15T19:41:51.873Z,11.70
2022-11-15T19:44:20.417Z,12.43
2022-11-15T19:46:49.404Z,12.80
2022-11-15T19:49:17.748Z,12.57
2022-11-15T19:51:48.489Z,11.95
2022-11-15T19:54:17.676Z,12.68
2022-11-15T19:56:47.951Z,11.45
2022-11-15T19:59:17.396Z,12.23
2022-11-15T20:01:46.119Z,11.55
2022-11-15T20:04:14.477Z,11.70
2022-11-15T20:06:44.344Z,12.38
2022-11-15T20:09:15.029Z,13.65
2022-11-15T20:11:44.028Z,10.93
2022-11-15T20:14:14.050Z,12.50
2022-11-15T20:16:43.126Z,12.25
2022-11-15T20:19:12.617Z,12.98
2022-11-15T20:21:41.517Z,11.45
2022-11-15T20:24:10.531Z,13.05
2022-11-15T20:26:39.500Z,12.50
2022-11-15T20:29:10.001Z,10.10
2022-11-15T20:31:43.070Z,11.50
2022-11-15T20:34:11.627Z,11.65
2022-11-15T20:36:40.469Z,10.52
2022-11-15T20:39:08.783Z,11.32
2022-11-15T20:41:37.392Z,10.52
2022-11-15T20:44:06.175Z,11.95
2022-11-15T20:46:35.860Z,11.77
2022-11-15T20:49:06.584Z,10.88
2022-11-15T20:51:36.596Z,11.60
2022-11-15T20:54:06.456Z,10.65
2022-11-15T20:56:35.610Z,11.75
2022-11-15T20:59:04.010Z,11.25
2022-11-15T21:01:32.872Z,11.13
2022-11-15T21:04:01.757Z,9.68
2022-11-15T21:06:32.007Z,9.63
2022-11-15T21:09:18.246Z,10.65
2022-11-15T21:12:04.504Z,9.32
2022-11-15T21:14:33.592Z,9.77
2022-11-15T21:17:02.421Z,9.70
2022-11-15T21:19:35.627Z,10.90
2022-11-15T21:22:17.576Z,11.52
2022-11-15T21:24:46.677Z,10.88
2022-11-15T21:27:15.456Z,11.65
2022-11-15T21:29:45.778Z,10.10
2022-11-15T21:32:14.455Z,8.95
2022-11-15T21:34:44.833Z,10.88
2022-11-15T21:37:13.789Z,10.73
2022-11-15T21:39:43.470Z,10.30
2022-11-15T21:42:12.051Z,10.05
2022-11-15T21:44:40.327Z,9.27
2022-11-15T21:47:09.062Z,10.32
2022-11-15T21:49:37.873Z,9.60
2022-11-15T21:52:06.898Z,8.48
2022-11-15T21:54:35.145Z,9.48
2022-11-15T21:57:05.262Z,9.88
2022-11-15T21:59:33.553Z,10.77
2022-11-15T22:02:16.370Z,9.07
2022-11-15T22:05:55.323Z,9.52
2022-11-15T22:08:25.024Z,9.05
2022-11-15T22:10:54.279Z,9.85
2022-11-15T22:13:25.888Z,7.72
2022-11-15T22:15:55.226Z,7.32
2022-11-15T22:18:26.746Z,8.40
2022-11-15T22:20:56.835Z,9.18
2022-11-15T22:23:26.604Z,9.95
2022-11-15T22:25:55.693Z,8.10
2022-11-15T22:28:26.676Z,8.80
2022-11-15T22:30:56.674Z,8.93
2022-11-15T22:33:27.395Z,9.10
2022-11-15T22:35:56.612Z,9.50
2022-11-15T22:38:26.478Z,9.30
2022-11-15T22:40:55.328Z,10.27
2022-11-15T22:43:27.365Z,9.32
2022-11-15T22:45:57.009Z,9.93
2022-11-15T22:48:28.619Z,8.95
2022-11-15T22:50:58.197Z,8.82
2022-11-15T22:53:28.736Z,9.52
2022-11-15T22:55:59.418Z,10.75
2022-11-15T22:58:32.426Z,9.82
2022-11-15T23:01:03.757Z,10.80
2022-11-15T23:03:33.657Z,10.65
2022-11-15T23:06:07.335Z,11.45
2022-11-15T23:08:37.090Z,11.65
2022-11-15T23:11:24.037Z,11.27
2022-11-15T23:13:54.771Z,12.95
2022-11-15T23:16:26.020Z,12.77
2022-11-15T23:18:59.450Z,12.68
2022-11-15T23:21:47.992Z,12.90
2022-11-15T23:24:18.295Z,11.93
2022-11-15T23:26:49.564Z,11.38
2022-11-15T23:29:21.818Z,13.27
2022-11-15T23:32:08.546Z,13.95
2022-11-15T23:34:40.298Z,13.43
2022-11-15T23:37:11.850Z,13.70
2022-11-15T23:39:41.658Z,13.13
2022-11-15T23:42:20.023Z,13.13
2022-11-15T23:44:51.120Z,13.77
2022-11-15T23:47:20.633Z,12.50
2022-11-15T23:49:49.727Z,16.10
2022-11-15T23:52:18.960Z,14.93
2022-11-15T23:54:48.120Z,13.38
2022-11-15T23:57:16.948Z,14.02
2022-11-15T23:59:46.103Z,13.52
